createdAt,value
2023-01-05T00:00:13.215Z,100901.41
2023-01-05T00:02:39.993Z,100911.91
2023-01-05T00:05:06.874Z,100911.13
2023-01-05T00:07:33.869Z,100916.13
2023-01-05T00:10:00.596Z,100923.25
2023-01-05T00:12:45.797Z,100931.81
2023-01-05T00:15:30.834Z,100923.66
2023-01-05T00:18:15.995Z,100935.16
2023-01-05T00:21:01.048Z,100931.13
2023-01-05T00:23:27.736Z,100941.28
2023-01-05T00:25:55.526Z,100954.44
2023-01-05T00:28:22.225Z,100957.91
2023-01-05T00:30:48.898Z,100950.84
2023-01-05T00:33:17.189Z,100931.19
2023-01-05T00:35:43.913Z,100916.06
2023-01-05T00:38:10.973Z,100925.84
2023-01-05T00:40:37.800Z,100929.47
2023-01-05T00:43:04.852Z,100912.53
2023-01-05T00:45:31.571Z,100902.81
2023-01-05T00:47:58.396Z,100903.50
2023-01-05T00:50:25.154Z,100903.62
2023-01-05T00:52:51.886Z,100895.09
2023-01-05T00:55:18.680Z,100909.03
2023-01-05T00:57:46.532Z,100893.34
2023-01-05T01:00:16.272Z,100876.81
2023-01-05T01:02:43.280Z,100849.47
2023-01-05T01:05:13.148Z,100837.84
2023-01-05T01:07:39.875Z,100832.03
2023-01-05T01:10:07.214Z,100840.69
2023-01-05T01:12:34.007Z,100835.56
2023-01-05T01:15:00.829Z,100825.91
2023-01-05T01:17:27.587Z,100818.06
2023-01-05T01:19:54.349Z,100825.97
2023-01-05T01:22:21.044Z,100822.50
2023-01-05T01:24:47.773Z,100812.53
2023-01-05T01:27:14.489Z,100824.03
2023-01-05T01:29:41.367Z,100813.41
2023-01-05T01:32:08.418Z,100823.28
2023-01-05T01:34:35.154Z,100828.66
2023-01-05T01:39:27.373Z,100844.44
2023-01-05T01:41:54.036Z,100829.56
2023-01-05T01:44:39.440Z,100832.28
2023-01-05T01:47:06.235Z,100845.25
2023-01-05T01:49:32.927Z,100846.22
2023-01-05T01:51:59.656Z,100831.41
2023-01-05T01:54:26.348Z,100840.87
2023-01-05T01:56:55.566Z,100823.59
2023-01-05T01:59:24.327Z,100823.59
2023-01-05T02:01:54.214Z,100815.50
2023-01-05T02:04:21.399Z,100805.81
2023-01-05T02:06:51.755Z,100806.78
2023-01-05T02:09:18.747Z,100809.47
2023-01-05T02:11:51.386Z,100802.56
2023-01-05T02:14:27.316Z,100798.97
2023-01-05T02:17:07.814Z,100796.53
2023-01-05T02:19:43.776Z,100785.22
2023-01-05T02:22:30.653Z,100769.66
2023-01-05T02:25:00.342Z,100760.94
2023-01-05T02:27:35.931Z,100753.97
2023-01-05T02:30:05.774Z,100746.25
2023-01-05T02:32:47.705Z,100746.41
2023-01-05T02:35:40.573Z,100750.44
2023-01-05T02:38:12.331Z,100743.66
2023-01-05T02:40:43.023Z,100736.13
2023-01-05T02:43:11.048Z,100727.84
2023-01-05T02:45:37.788Z,100737.41
2023-01-05T02:48:05.121Z,100724.03
2023-01-05T02:50:38.113Z,100727.22
2023-01-05T02:53:07.979Z,100719.44
2023-01-05T02:55:39.734Z,100726.22
2023-01-05T02:58:11.267Z,100732.00
2023-01-05T03:00:59.031Z,100716.69
2023-01-05T03:03:29.835Z,100716.31
2023-01-05T03:06:01.099Z,100716.38
2023-01-05T03:08:33.001Z,100717.81
2023-01-05T03:11:18.761Z,100706.22
2023-01-05T03:13:48.611Z,100709.53
2023-01-05T03:16:19.131Z,100708.88
2023-01-05T03:19:05.009Z,100698.31
2023-01-05T03:21:50.152Z,100686.25
2023-01-05T03:24:35.731Z,100699.44
2023-01-05T03:27:22.031Z,100689.81
2023-01-05T03:30:07.241Z,100688.63
2023-01-05T03:32:53.760Z,100685.31
2023-01-05T03:35:34.390Z,100674.34
2023-01-05T03:38:06.665Z,100669.06
2023-01-05T03:40:35.097Z,100669.91
2023-01-05T03:43:03.009Z,100673.38
2023-01-05T03:45:43.831Z,100665.34
2023-01-05T03:48:10.554Z,100663.47
2023-01-05T03:50:37.856Z,100660.72
2023-01-05T03:53:05.188Z,100656.88
2023-01-05T03:55:31.981Z,100658.06
2023-01-05T03:57:59.066Z,100657.66
2023-01-05T04:00:25.944Z,100659.22
2023-01-05T04:02:52.837Z,100656.59
2023-01-05T04:05:20.469Z,100646.41
2023-01-05T04:07:47.208Z,100644.19
2023-01-05T04:10:13.874Z,100635.84
2023-01-05T04:12:40.604Z,100646.81
2023-01-05T04:15:07.555Z,100641.94
2023-01-05T04:17:34.432Z,100647.66
2023-01-05T04:20:01.187Z,100651.22
2023-01-05T04:22:27.869Z,100650.53
2023-01-05T04:24:54.834Z,100657.59
2023-01-05T04:27:21.526Z,100662.91
2023-01-05T04:29:48.210Z,100658.16
2023-01-05T04:32:15.010Z,100666.06
2023-01-05T04:34:41.677Z,100659.44
2023-01-05T04:37:08.420Z,100664.25
2023-01-05T04:39:35.152Z,100664.00
2023-01-05T04:42:01.980Z,100655.94
2023-01-05T04:44:28.660Z,100643.59
2023-01-05T04:46:55.445Z,100641.13
2023-01-05T04:49:22.200Z,100652.66
2023-01-05T04:51:48.930Z,100642.31
2023-01-05T04:54:15.862Z,100638.84
2023-01-05T04:56:42.594Z,100642.84
2023-01-05T04:59:09.337Z,100633.72
2023-01-05T05:01:36.268Z,100620.84
2023-01-05T05:04:02.984Z,100625.19
2023-01-05T05:06:29.672Z,100614.03
2023-01-05T05:08:56.326Z,100602.06
2023-01-05T05:11:23.356Z,100602.25
2023-01-05T05:13:50.056Z,100610.69
2023-01-05T05:16:16.688Z,100608.28
2023-01-05T05:18:43.475Z,100610.94
2023-01-05T05:21:10.537Z,100592.50
2023-01-05T05:23:37.963Z,100597.47
2023-01-05T05:26:04.879Z,100614.69
2023-01-05T05:28:31.592Z,100612.66
2023-01-05T05:30:58.343Z,100606.56
2023-01-05T05:33:25.773Z,100615.84
2023-01-05T05:35:52.977Z,100620.84
2023-01-05T05:38:19.819Z,100620.31
2023-01-05T05:40:48.266Z,100640.69
2023-01-05T05:43:14.961Z,100647.75
2023-01-05T05:45:47.895Z,100639.34
2023-01-05T05:48:16.907Z,100637.81
2023-01-05T05:50:44.526Z,100630.97
2023-01-05T05:53:11.265Z,100626.09
2023-01-05T05:55:38.189Z,100618.94
2023-01-05T05:58:04.999Z,100625.97
2023-01-05T06:00:33.087Z,100616.91
2023-01-05T06:03:01.444Z,100616.87
2023-01-05T06:05:29.076Z,100617.47
2023-01-05T06:07:55.757Z,100620.19
2023-01-05T06:10:22.405Z,100605.56
2023-01-05T06:12:49.267Z,100624.34
2023-01-05T06:15:16.031Z,100610.19
2023-01-05T06:17:42.879Z,100614.03
2023-01-05T06:20:10.053Z,100611.41
2023-01-05T06:22:36.899Z,100615.09
2023-01-05T06:25:03.921Z,100610.81
2023-01-05T06:27:30.633Z,100614.56
2023-01-05T06:29:57.399Z,100593.78
2023-01-05T06:32:25.371Z,100589.22
2023-01-05T06:34:52.299Z,100586.53
2023-01-05T06:37:19.060Z,100582.63
2023-01-05T06:39:45.794Z,100581.09
2023-01-05T06:42:12.922Z,100585.19
2023-01-05T06:44:39.604Z,100579.41
2023-01-05T06:47:06.264Z,100583.69
2023-01-05T06:49:32.972Z,100577.72
2023-01-05T06:51:59.637Z,100565.50
2023-01-05T06:54:26.372Z,100574.38
2023-01-05T06:56:53.205Z,100556.94
2023-01-05T06:59:19.878Z,100560.34
2023-01-05T07:01:46.704Z,100564.75
2023-01-05T07:04:13.523Z,100562.16
2023-01-05T07:06:40.440Z,100555.25
2023-01-05T07:09:07.275Z,100547.19
2023-01-05T07:11:34.047Z,100550.84
2023-01-05T07:14:00.797Z,100554.72
2023-01-05T07:16:27.517Z,100550.97
2023-01-05T07:18:54.222Z,100550.09
2023-01-05T07:21:20.894Z,100537.00
2023-01-05T07:23:48.288Z,100551.69
2023-01-05T07:26:14.957Z,100556.03
2023-01-05T07:28:41.764Z,100558.91
2023-01-05T07:31:08.725Z,100544.06
2023-01-05T07:33:39.899Z,100540.81
2023-01-05T07:36:07.337Z,100542.78
2023-01-05T07:38:34.105Z,100556.75
2023-01-05T07:41:01.847Z,100563.84
2023-01-05T07:43:28.668Z,100565.59
2023-01-05T07:45:59.492Z,100584.72
2023-01-05T07:48:26.297Z,100582.34
2023-01-05T07:50:53.315Z,100581.31
2023-01-05T07:53:20.130Z,100588.09
2023-01-05T07:55:54.990Z,100576.44
2023-01-05T07:58:21.704Z,100582.87
2023-01-05T08:00:48.472Z,100568.31
2023-01-05T08:03:15.865Z,100567.16
2023-01-05T08:05:42.648Z,100573.84
2023-01-05T08:08:11.457Z,100576.03
2023-01-05T08:10:38.787Z,100587.47
2023-01-05T08:13:24.697Z,100578.16
2023-01-05T08:15:52.043Z,100588.63
2023-01-05T08:18:19.711Z,100597.31
2023-01-05T08:20:58.883Z,100585.25
2023-01-05T08:23:26.969Z,100592.25
2023-01-05T08:25:55.870Z,100587.13
2023-01-05T08:28:24.658Z,100573.16
2023-01-05T08:30:54.119Z,100581.94
2023-01-05T08:33:20.958Z,100568.81
2023-01-05T08:35:47.824Z,100565.31
2023-01-05T08:38:14.747Z,100565.31
2023-01-05T08:40:43.676Z,100567.06
2023-01-05T08:43:10.947Z,100568.66
2023-01-05T08:45:37.783Z,100577.38
2023-01-05T08:48:04.534Z,100573.94
2023-01-05T08:50:32.038Z,100590.41
2023-01-05T08:52:58.716Z,100582.66
2023-01-05T08:55:25.479Z,100591.91
2023-01-05T08:57:52.270Z,100586.31
2023-01-05T09:00:22.334Z,100587.13
2023-01-05T09:02:49.432Z,100574.03
2023-01-05T09:05:16.837Z,100586.06
2023-01-05T09:07:45.172Z,100592.13
2023-01-05T09:10:11.918Z,100591.00
2023-01-05T09:12:39.296Z,100568.72
2023-01-05T09:15:09.079Z,100572.00
2023-01-05T09:17:38.758Z,100578.22
2023-01-05T09:20:06.009Z,100589.56
2023-01-05T09:22:32.789Z,100599.41
2023-01-05T09:24:59.539Z,100601.75
2023-01-05T09:27:26.265Z,100594.00
2023-01-05T09:29:52.956Z,100606.31
2023-01-05T09:32:20.389Z,100598.59
2023-01-05T09:34:47.119Z,100594.16
2023-01-05T09:37:16.348Z,100588.97
2023-01-05T09:39:43.090Z,100588.97
2023-01-05T09:42:14.229Z,100569.72
2023-01-05T09:44:58.932Z,100557.47
2023-01-05T09:47:37.064Z,100568.00
2023-01-05T09:50:06.662Z,100560.00
2023-01-05T09:52:38.060Z,100544.34
2023-01-05T09:55:32.070Z,100541.56
2023-01-05T09:58:02.346Z,100545.13
2023-01-05T10:00:29.529Z,100574.97
2023-01-05T10:02:59.190Z,100551.28
2023-01-05T10:05:27.545Z,100543.44
2023-01-05T10:08:13.117Z,100527.69
2023-01-05T10:10:42.690Z,100543.44
2023-01-05T10:13:19.595Z,100540.78
2023-01-05T10:15:48.543Z,100537.19
2023-01-05T10:18:17.911Z,100546.00
2023-01-05T10:20:45.792Z,100539.78
2023-01-05T10:23:15.462Z,100530.06
2023-01-05T10:25:53.975Z,100521.31
2023-01-05T10:28:20.721Z,100510.50
2023-01-05T10:30:50.904Z,100517.72
2023-01-05T10:33:41.607Z,100507.16
2023-01-05T10:36:57.663Z,100508.97
2023-01-05T10:39:31.828Z,100498.00
2023-01-05T10:42:13.892Z,100502.47
2023-01-05T10:44:49.880Z,100502.56
2023-01-05T10:47:17.104Z,100499.88
2023-01-05T10:49:45.697Z,100504.87
2023-01-05T10:52:13.645Z,100498.19
2023-01-05T10:54:43.613Z,100490.69
2023-01-05T10:57:39.736Z,100479.28
2023-01-05T11:00:09.541Z,100475.69
2023-01-05T11:02:39.064Z,100478.41
2023-01-05T11:05:15.029Z,100466.44
2023-01-05T11:07:49.783Z,100457.81
2023-01-05T11:10:36.606Z,100462.75
2023-01-05T11:13:07.890Z,100469.19
2023-01-05T11:15:40.786Z,100460.69
2023-01-05T11:18:27.931Z,100467.97
2023-01-05T11:21:08.619Z,100463.69
2023-01-05T11:23:37.028Z,100464.06
2023-01-05T11:26:13.076Z,100456.09
2023-01-05T11:28:42.804Z,100447.78
2023-01-05T11:31:10.065Z,100452.88
2023-01-05T11:33:39.813Z,100451.91
2023-01-05T11:36:06.873Z,100446.53
2023-01-05T11:38:34.128Z,100435.03
2023-01-05T11:41:01.226Z,100432.59
2023-01-05T11:43:30.143Z,100427.84
2023-01-05T11:46:01.489Z,100429.53
2023-01-05T11:48:32.288Z,100422.47
2023-01-05T11:50:59.776Z,100413.25
2023-01-05T11:53:35.665Z,100423.31
2023-01-05T11:56:05.965Z,100417.94
2023-01-05T11:58:34.005Z,100417.63
2023-01-05T12:01:21.194Z,100416.66
2023-01-05T12:04:03.988Z,100422.78
2023-01-05T12:06:49.266Z,100423.47
2023-01-05T12:09:35.844Z,100423.50
2023-01-05T12:12:08.696Z,100428.38
2023-01-05T12:14:41.512Z,100432.12
2023-01-05T12:17:14.365Z,100429.34
2023-01-05T12:19:44.128Z,100419.03
2023-01-05T12:22:14.080Z,100412.53
2023-01-05T12:24:59.627Z,100413.81
2023-01-05T12:27:26.325Z,100422.72
2023-01-05T12:35:52.694Z,100447.72
2023-01-05T12:38:34.883Z,100460.09
2023-01-05T12:41:04.645Z,100453.97
2023-01-05T12:43:40.971Z,100474.75
2023-01-05T12:46:18.390Z,100466.91
2023-01-05T12:48:52.578Z,100481.97
2023-01-05T12:51:23.456Z,100494.28
2023-01-05T12:54:02.667Z,100499.03
2023-01-05T12:56:44.763Z,100530.84
2023-01-05T12:59:25.154Z,100531.72
2023-01-05T13:02:07.633Z,100532.50
2023-01-05T13:04:47.774Z,100519.13
2023-01-05T13:07:27.632Z,100501.97
2023-01-05T13:10:03.823Z,100491.44
2023-01-05T13:12:31.018Z,100492.59
2023-01-05T13:15:07.140Z,100477.87
2023-01-05T13:17:35.128Z,100475.47
2023-01-05T13:20:10.912Z,100462.66
2023-01-05T13:22:41.046Z,100451.44
2023-01-05T13:25:20.117Z,100459.75
2023-01-05T13:27:47.280Z,100457.94
2023-01-05T13:30:20.099Z,100462.28
2023-01-05T13:33:05.785Z,100473.47
2023-01-05T13:35:41.538Z,100478.44
2023-01-05T13:38:14.583Z,100480.84
2023-01-05T13:41:03.680Z,100477.25
2023-01-05T13:43:42.495Z,100476.34
2023-01-05T13:46:30.930Z,100477.41
2023-01-05T13:49:19.420Z,100460.66
2023-01-05T13:51:57.071Z,100457.63
2023-01-05T13:54:59.548Z,100464.72
2023-01-05T13:57:47.291Z,100462.72
2023-01-05T14:00:22.937Z,100482.75
2023-01-05T14:03:07.673Z,100495.47
2023-01-05T14:05:39.853Z,100521.78
2023-01-05T14:08:17.407Z,100532.37
2023-01-05T14:11:04.026Z,100543.69
2023-01-05T14:13:47.694Z,100553.38
2023-01-05T14:16:40.475Z,100564.03
2023-01-05T14:19:15.021Z,100566.63
2023-01-05T14:21:50.805Z,100560.38
2023-01-05T14:24:31.787Z,100555.97
2023-01-05T14:27:00.051Z,100575.44
2023-01-05T14:29:45.451Z,100563.84
2023-01-05T14:32:13.731Z,100555.87
2023-01-05T14:34:50.838Z,100554.91
2023-01-05T14:37:23.277Z,100553.22
2023-01-05T14:39:53.319Z,100557.66
2023-01-05T14:42:25.167Z,100555.97
2023-01-05T14:45:02.892Z,100565.66
2023-01-05T14:47:36.956Z,100575.41
2023-01-05T14:50:06.179Z,100582.81
2023-01-05T14:52:51.491Z,100581.84
2023-01-05T14:55:27.033Z,100593.25
2023-01-05T14:58:05.325Z,100588.00
2023-01-05T15:00:58.223Z,100582.75
2023-01-05T15:03:27.060Z,100595.94
2023-01-05T15:05:57.297Z,100589.28
2023-01-05T15:08:34.159Z,100606.09
2023-01-05T15:11:13.494Z,100612.84
2023-01-05T15:14:12.291Z,100607.09
2023-01-05T15:16:57.780Z,100597.34
2023-01-05T15:19:42.687Z,100607.00
2023-01-05T15:22:36.453Z,100598.62
2023-01-05T15:25:14.950Z,100594.44
2023-01-05T15:27:52.315Z,100597.41
2023-01-05T15:30:31.644Z,100597.28
2023-01-05T15:33:18.598Z,100599.87
2023-01-05T15:35:49.245Z,100614.88
2023-01-05T15:38:24.077Z,100620.03
2023-01-05T15:40:57.450Z,100620.00
2023-01-05T15:43:24.419Z,100621.75
2023-01-05T15:45:53.642Z,100638.44
2023-01-05T15:48:29.179Z,100635.81
2023-01-05T15:50:57.467Z,100652.53
2023-01-05T15:53:24.116Z,100646.38
2023-01-05T15:55:52.237Z,100641.13
2023-01-05T15:58:19.614Z,100640.22
2023-01-05T16:01:00.709Z,100634.16
2023-01-05T16:03:29.172Z,100635.06
2023-01-05T16:06:03.017Z,100636.94
2023-01-05T16:08:32.048Z,100644.41
2023-01-05T16:11:01.692Z,100642.81
2023-01-05T16:13:33.689Z,100648.28
2023-01-05T16:16:03.435Z,100635.94
2023-01-05T16:18:35.422Z,100639.81
2023-01-05T16:21:12.184Z,100644.22
2023-01-05T16:23:51.345Z,100656.41
2023-01-05T16:26:19.179Z,100651.09
2023-01-05T16:28:46.348Z,100652.00
2023-01-05T16:31:25.298Z,100652.81
2023-01-05T16:34:10.666Z,100648.47
2023-01-05T16:36:37.451Z,100646.25
2023-01-05T16:39:14.864Z,100654.97
2023-01-05T16:42:01.601Z,100652.44
2023-01-05T16:44:33.241Z,100654.94
2023-01-05T16:47:08.042Z,100655.84
2023-01-05T16:49:53.293Z,100661.19
2023-01-05T16:52:27.264Z,100659.41
2023-01-05T16:55:27.173Z,100658.56
2023-01-05T16:57:54.759Z,100666.63
2023-01-05T17:00:31.018Z,100666.53
2023-01-05T17:02:58.975Z,100671.78
2023-01-05T17:05:30.001Z,100675.34
2023-01-05T17:08:02.597Z,100680.41
2023-01-05T17:10:29.683Z,100678.63
2023-01-05T17:13:04.955Z,100676.97
2023-01-05T17:15:33.202Z,100679.53
2023-01-05T17:18:00.286Z,100681.13
2023-01-05T17:20:29.710Z,100691.72
2023-01-05T17:22:56.945Z,100688.00
2023-01-05T17:25:26.500Z,100699.38
2023-01-05T17:27:53.170Z,100698.50
2023-01-05T17:30:21.160Z,100711.63
2023-01-05T17:32:48.198Z,100704.81
2023-01-05T17:35:17.159Z,100707.56
2023-01-05T17:37:46.519Z,100703.75
2023-01-05T17:40:17.186Z,100713.41
2023-01-05T17:42:44.109Z,100707.09
2023-01-05T17:45:18.779Z,100708.06
2023-01-05T17:47:45.869Z,100709.75
2023-01-05T17:50:14.488Z,100711.84
2023-01-05T17:52:41.333Z,100711.66
2023-01-05T17:55:08.397Z,100718.00
2023-01-05T17:57:35.365Z,100707.19
2023-01-05T18:00:02.290Z,100711.66
2023-01-05T18:02:29.082Z,100710.97
2023-01-05T18:04:56.956Z,100705.56
2023-01-05T18:07:23.725Z,100712.50
2023-01-05T18:09:50.710Z,100716.00
2023-01-05T18:12:17.726Z,100716.88
2023-01-05T18:14:45.226Z,100719.53
2023-01-05T18:17:12.024Z,100716.88
2023-01-05T18:19:38.697Z,100726.59
2023-01-05T18:22:06.052Z,100711.66
2023-01-05T18:24:32.729Z,100715.25
2023-01-05T18:26:59.410Z,100725.13
2023-01-05T18:29:26.291Z,100730.34
2023-01-05T18:31:53.929Z,100720.75
2023-01-05T18:34:20.776Z,100740.44
2023-01-05T18:36:52.471Z,100749.03
2023-01-05T18:39:25.401Z,100753.50
2023-01-05T18:41:52.464Z,100769.91
2023-01-05T18:44:19.207Z,100778.69
2023-01-05T18:46:45.953Z,100779.91
2023-01-05T18:49:13.412Z,100777.50
2023-01-05T18:51:40.495Z,100763.09
2023-01-05T18:54:07.741Z,100768.31
2023-01-05T18:56:34.444Z,100757.00
2023-01-05T18:59:01.359Z,100760.50
2023-01-05T19:01:28.193Z,100757.06
2023-01-05T19:03:55.441Z,100762.22
2023-01-05T19:06:23.831Z,100755.22
2023-01-05T19:08:51.260Z,100757.00
2023-01-05T19:11:19.400Z,100760.50
2023-01-05T19:13:47.237Z,100765.75
2023-01-05T19:16:17.095Z,100764.00
2023-01-05T19:18:44.031Z,100766.69
2023-01-05T19:21:10.782Z,100771.06
2023-01-05T19:23:37.609Z,100761.44
2023-01-05T19:26:05.408Z,100767.12
2023-01-05T19:28:34.360Z,100766.59
2023-01-05T19:31:14.166Z,100777.16
2023-01-05T19:33:41.817Z,100787.66
2023-01-05T19:36:10.648Z,100783.34
2023-01-05T19:38:38.490Z,100789.41
2023-01-05T19:41:05.236Z,100789.44
2023-01-05T19:43:32.132Z,100787.62
2023-01-05T19:46:00.163Z,100796.37
2023-01-05T19:48:27.314Z,100802.31
2023-01-05T19:51:01.557Z,100801.22
2023-01-05T19:53:28.348Z,100808.69
2023-01-05T19:56:02.976Z,100814.09
2023-01-05T19:58:30.088Z,100827.06
2023-01-05T20:00:58.341Z,100826.22
2023-01-05T20:03:25.045Z,100837.28
2023-01-05T20:05:51.756Z,100840.06
2023-01-05T20:08:18.439Z,100833.16
2023-01-05T20:10:45.210Z,100846.31
2023-01-05T20:13:11.960Z,100842.06
2023-01-05T20:15:38.613Z,100847.75
2023-01-05T20:18:05.604Z,100850.19
2023-01-05T20:20:32.307Z,100862.47
2023-01-05T20:22:59.191Z,100852.12
2023-01-05T20:25:25.877Z,100855.66
2023-01-05T20:27:52.576Z,100862.50
2023-01-05T20:30:19.316Z,100862.03
2023-01-05T20:32:46.029Z,100852.22
2023-01-05T20:35:13.245Z,100855.78
2023-01-05T20:37:40.006Z,100856.72
2023-01-05T20:40:07.025Z,100868.94
2023-01-05T20:42:33.846Z,100866.72
2023-01-05T20:45:03.074Z,100871.44
2023-01-05T20:47:31.847Z,100869.59
2023-01-05T20:50:03.330Z,100887.63
2023-01-05T20:52:29.982Z,100885.78
2023-01-05T20:54:56.753Z,100884.03
2023-01-05T20:57:24.034Z,100898.72
2023-01-05T20:59:50.723Z,100890.28
2023-01-05T21:02:24.033Z,100889.50
2023-01-05T21:04:52.310Z,100896.94
2023-01-05T21:07:19.171Z,100895.50
2023-01-05T21:09:45.807Z,100903.97
2023-01-05T21:12:12.584Z,100899.88
2023-01-05T21:14:39.687Z,100900.25
2023-01-05T21:17:06.506Z,100915.06
2023-01-05T21:19:34.103Z,100905.50
2023-01-05T21:22:00.884Z,100905.44
2023-01-05T21:24:27.651Z,100913.78
2023-01-05T21:26:55.069Z,100915.31
2023-01-05T21:29:23.625Z,100918.03
2023-01-05T21:31:51.583Z,100914.87
2023-01-05T21:34:18.754Z,100913.88
2023-01-05T21:36:46.091Z,100914.81
2023-01-05T21:39:17.586Z,100927.66
2023-01-05T21:42:02.863Z,100927.84
2023-01-05T21:44:29.808Z,100931.00
2023-01-05T21:46:56.604Z,100942.06
2023-01-05T21:49:23.347Z,100937.66
2023-01-05T21:52:08.456Z,100940.34
2023-01-05T21:54:53.494Z,100937.12
2023-01-05T21:57:20.269Z,100950.16
2023-01-05T21:59:47.141Z,100953.38
2023-01-05T22:02:14.428Z,100966.66
2023-01-05T22:04:41.166Z,100964.22
2023-01-05T22:07:08.036Z,100974.81
2023-01-05T22:09:35.253Z,100972.28
2023-01-05T22:12:02.936Z,100963.31
2023-01-05T22:14:29.688Z,100973.63
2023-01-05T22:16:56.453Z,100965.66
2023-01-05T22:19:23.336Z,100972.13
2023-01-05T22:21:50.114Z,100980.53
2023-01-05T22:24:17.001Z,100964.62
2023-01-05T22:26:43.622Z,100974.19
2023-01-05T22:29:10.426Z,100972.19
2023-01-05T22:31:37.109Z,100977.41
2023-01-05T22:34:05.304Z,100977.00
2023-01-05T22:36:32.355Z,100998.63
2023-01-05T22:38:59.084Z,100994.19
2023-01-05T22:41:27.284Z,100998.91
2023-01-05T22:43:54.076Z,100992.69
2023-01-05T22:46:22.609Z,100986.56
2023-01-05T22:48:50.312Z,101017.38
2023-01-05T22:51:19.045Z,100996.28
2023-01-05T22:53:45.951Z,100999.28
2023-01-05T22:56:13.887Z,100999.66
2023-01-05T22:58:40.764Z,101000.31
2023-01-05T23:01:07.669Z,101008.38
2023-01-05T23:03:34.406Z,101004.47
2023-01-05T23:06:01.223Z,101014.97
2023-01-05T23:08:28.223Z,101016.87
2023-01-05T23:11:01.993Z,101018.81
2023-01-05T23:13:29.133Z,101009.34
2023-01-05T23:15:56.376Z,100993.13
2023-01-05T23:18:23.699Z,100998.63
2023-01-05T23:20:57.773Z,101006.94
2023-01-05T23:23:24.580Z,101010.22
2023-01-05T23:25:51.724Z,101013.13
2023-01-05T23:28:19.351Z,101014.53
2023-01-05T23:30:48.884Z,101026.19
2023-01-05T23:33:16.553Z,101029.50
2023-01-05T23:35:43.828Z,101031.69
2023-01-05T23:38:10.727Z,101036.53
2023-01-05T23:40:44.655Z,101036.56
2023-01-05T23:43:12.030Z,101021.28
2023-01-05T23:45:40.548Z,101021.69
2023-01-05T23:48:08.722Z,101027.56
2023-01-05T23:50:35.797Z,101021.59
2023-01-05T23:53:03.620Z,101017.06
2023-01-05T23:55:30.405Z,101013.66
2023-01-05T23:57:58.326Z,101020.13
